createdAt,value
2023-02-15T00:02:05.226Z,20.33
2023-02-15T00:04:49.779Z,20.87
2023-02-15T00:07:22.921Z,23.30
2023-02-15T00:09:53.628Z,20.20
2023-02-15T00:12:23.711Z,19.87
2023-02-15T00:14:53.807Z,18.97
2023-02-15T00:17:26.415Z,21.70
2023-02-15T00:19:56.395Z,22.57
2023-02-15T00:22:26.484Z,19.30
2023-02-15T00:24:56.543Z,20.20
2023-02-15T00:27:27.158Z,21.73
2023-02-15T00:29:57.119Z,20.57
2023-02-15T00:32:29.696Z,19.87
2023-02-15T00:34:59.659Z,17.67
2023-02-15T00:37:29.662Z,21.17
2023-02-15T00:39:59.654Z,21.80
2023-02-15T00:42:29.604Z,21.63
2023-02-15T00:44:59.605Z,23.60
2023-02-15T00:47:34.753Z,19.20
2023-02-15T00:50:04.852Z,17.57
2023-02-15T00:52:34.892Z,19.00
2023-02-15T00:55:07.217Z,19.50
2023-02-15T00:57:37.194Z,20.43
2023-02-15T01:00:08.935Z,23.67
2023-02-15T01:02:41.492Z,23.03
2023-02-15T01:05:11.993Z,20.53
2023-02-15T01:07:42.745Z,18.87
2023-02-15T01:10:13.461Z,17.00
2023-02-15T01:12:43.434Z,22.40
2023-02-15T01:15:14.087Z,22.40
2023-02-15T01:17:52.223Z,19.60
2023-02-15T01:20:23.644Z,19.30
2023-02-15T01:22:54.121Z,20.17
2023-02-15T01:25:27.665Z,20.90
2023-02-15T01:27:58.789Z,20.60
2023-02-15T01:30:28.964Z,23.17
2023-02-15T01:33:01.801Z,17.90
2023-02-15T01:35:34.650Z,18.20
2023-02-15T01:38:04.621Z,19.40
2023-02-15T01:40:34.718Z,22.20
2023-02-15T01:43:04.700Z,21.43
2023-02-15T01:45:36.846Z,21.17
2023-02-15T01:48:23.408Z,24.50
2023-02-15T01:50:58.298Z,21.80
2023-02-15T01:53:33.878Z,21.53
2023-02-15T01:56:10.539Z,21.80
2023-02-15T01:58:42.499Z,23.40
2023-02-15T02:01:13.156Z,22.27
2023-02-15T02:03:57.156Z,22.23
2023-02-15T02:06:29.492Z,23.50
2023-02-15T02:09:00.502Z,23.67
2023-02-15T02:11:31.080Z,22.70
2023-02-15T02:14:01.312Z,26.47
2023-02-15T02:16:45.938Z,25.67
2023-02-15T02:20:11.208Z,23.60
2023-02-15T02:23:11.623Z,21.10
2023-02-15T02:26:37.202Z,23.17
2023-02-15T02:30:01.808Z,22.10
2023-02-15T02:33:35.840Z,23.73
2023-02-15T02:36:20.184Z,23.70
2023-02-15T02:39:10.151Z,22.60
2023-02-15T02:41:54.264Z,23.17
2023-02-15T02:44:29.835Z,22.40
2023-02-15T02:47:10.223Z,26.03
2023-02-15T02:49:46.657Z,23.40
2023-02-15T02:52:41.139Z,23.40
2023-02-15T02:55:19.386Z,24.47
2023-02-15T02:57:59.422Z,20.97
2023-02-15T03:00:35.439Z,25.07
2023-02-15T03:03:12.939Z,24.63
2023-02-15T03:05:50.611Z,23.97
2023-02-15T03:08:29.044Z,25.90
2023-02-15T03:11:03.688Z,22.43
2023-02-15T03:13:35.451Z,27.83
2023-02-15T03:16:22.780Z,27.30
2023-02-15T03:19:00.749Z,20.63
2023-02-15T03:21:58.600Z,22.03
2023-02-15T03:24:35.676Z,22.37
2023-02-15T03:27:11.376Z,24.53
2023-02-15T03:29:43.402Z,27.40
2023-02-15T03:32:16.468Z,25.30
2023-02-15T03:34:47.490Z,25.87
2023-02-15T03:37:31.827Z,21.97
2023-02-15T03:40:27.648Z,23.10
2023-02-15T03:43:08.181Z,24.63
2023-02-15T03:45:55.858Z,24.30
2023-02-15T03:48:33.557Z,23.67
2023-02-15T03:51:25.053Z,25.73
2023-02-15T03:53:59.968Z,26.00
2023-02-15T03:56:30.306Z,26.50
2023-02-15T03:59:12.808Z,24.10
2023-02-15T04:02:01.452Z,26.50
2023-02-15T04:04:40.036Z,25.30
2023-02-15T04:07:12.997Z,25.40
2023-02-15T04:09:58.077Z,23.10
2023-02-15T04:12:28.379Z,24.80
2023-02-15T04:15:10.864Z,25.40
2023-02-15T04:17:41.724Z,25.50
2023-02-15T04:20:26.083Z,25.80
2023-02-15T04:23:08.739Z,26.50
2023-02-15T04:25:41.274Z,21.53
2023-02-15T04:28:11.976Z,24.40
2023-02-15T04:30:41.985Z,22.83
2023-02-15T04:33:11.948Z,25.00
2023-02-15T04:35:41.928Z,23.47
2023-02-15T04:38:11.939Z,21.60
2023-02-15T04:40:44.570Z,21.57
2023-02-15T04:43:14.559Z,23.80
2023-02-15T04:45:44.573Z,24.13
2023-02-15T04:48:14.616Z,22.47
2023-02-15T04:50:44.605Z,25.00
2023-02-15T04:53:17.860Z,23.23
2023-02-15T04:55:50.587Z,21.63
2023-02-15T04:58:20.742Z,21.47
2023-02-15T05:00:50.757Z,22.57
2023-02-15T05:03:20.842Z,25.57
2023-02-15T05:05:50.919Z,24.77
2023-02-15T05:08:21.284Z,22.07
2023-02-15T05:10:54.771Z,24.53
2023-02-15T05:13:24.777Z,25.63
2023-02-15T05:15:56.698Z,23.47
2023-02-15T05:18:27.307Z,24.90
2023-02-15T05:20:57.304Z,26.07
2023-02-15T05:23:27.328Z,24.10
2023-02-15T05:26:12.507Z,22.30
2023-02-15T05:28:43.331Z,22.50
2023-02-15T05:31:18.032Z,26.50
2023-02-15T05:33:48.644Z,24.90
2023-02-15T05:36:18.688Z,22.00
2023-02-15T05:38:49.146Z,23.70
2023-02-15T05:41:22.414Z,22.70
2023-02-15T05:43:52.642Z,24.83
2023-02-15T05:46:22.786Z,24.70
2023-02-15T05:48:52.806Z,23.53
2023-02-15T05:51:22.820Z,22.30
2023-02-15T05:53:52.803Z,22.57
2023-02-15T05:56:26.170Z,26.50
2023-02-15T05:58:57.686Z,25.70
2023-02-15T06:01:27.815Z,27.50
2023-02-15T06:03:57.964Z,28.53
2023-02-15T06:06:28.087Z,24.10
2023-02-15T06:08:58.020Z,26.00
2023-02-15T06:11:30.634Z,21.90
2023-02-15T06:14:00.589Z,25.20
2023-02-15T06:16:30.611Z,24.77
2023-02-15T06:19:02.472Z,24.17
2023-02-15T06:21:34.101Z,25.10
2023-02-15T06:24:04.047Z,26.50
2023-02-15T06:26:36.648Z,23.37
2023-02-15T06:29:07.162Z,24.80
2023-02-15T06:31:37.419Z,26.37
2023-02-15T06:34:07.474Z,26.03
2023-02-15T06:36:37.862Z,24.53
2023-02-15T06:39:08.301Z,23.57
2023-02-15T06:41:40.877Z,26.47
2023-02-15T06:44:11.108Z,22.20
2023-02-15T06:46:41.126Z,27.67
2023-02-15T06:49:11.256Z,23.57
2023-02-15T06:51:41.225Z,28.33
2023-02-15T06:54:11.334Z,26.57
2023-02-15T06:56:44.596Z,27.27
2023-02-15T06:59:14.857Z,25.63
2023-02-15T07:01:44.910Z,23.40
2023-02-15T07:04:14.909Z,24.83
2023-02-15T07:06:45.232Z,25.30
2023-02-15T07:09:15.246Z,25.53
2023-02-15T07:12:00.292Z,28.30
2023-02-15T07:14:30.325Z,26.30
2023-02-15T07:17:00.708Z,27.10
2023-02-15T07:19:31.037Z,24.23
2023-02-15T07:22:01.041Z,26.17
2023-02-15T07:24:31.073Z,26.43
2023-02-15T07:27:03.682Z,26.70
2023-02-15T07:29:33.685Z,27.90
2023-02-15T07:32:03.814Z,24.27
2023-02-15T07:34:33.755Z,26.43
2023-02-15T07:37:03.728Z,26.73
2023-02-15T07:39:33.818Z,29.27
2023-02-15T07:42:06.874Z,29.17
2023-02-15T07:44:36.783Z,25.30
2023-02-15T07:47:06.942Z,26.30
2023-02-15T07:49:37.178Z,27.77
2023-02-15T07:52:08.044Z,26.43
2023-02-15T07:54:38.027Z,27.77
2023-02-15T07:57:10.704Z,29.07
2023-02-15T07:59:40.714Z,31.57
2023-02-15T08:02:14.041Z,27.83
2023-02-15T08:04:44.442Z,26.77
2023-02-15T08:07:14.398Z,26.47
2023-02-15T08:09:44.436Z,24.77
2023-02-15T08:12:17.028Z,27.03
2023-02-15T08:14:47.000Z,24.80
2023-02-15T08:17:17.067Z,24.97
2023-02-15T08:19:47.787Z,25.07
2023-02-15T08:22:18.538Z,27.73
2023-02-15T08:24:48.530Z,26.20
2023-02-15T08:27:27.667Z,27.60
2023-02-15T08:29:57.738Z,28.40
2023-02-15T08:32:27.767Z,24.83
2023-02-15T08:34:58.004Z,28.20
2023-02-15T08:37:27.979Z,25.10
2023-02-15T08:39:58.197Z,28.53
2023-02-15T08:42:31.477Z,27.20
2023-02-15T08:45:01.429Z,32.07
2023-02-15T08:47:31.708Z,27.33
2023-02-15T08:50:01.963Z,25.50
2023-02-15T08:52:31.981Z,29.40
2023-02-15T08:55:01.987Z,28.10
2023-02-15T08:57:34.643Z,30.00
2023-02-15T09:00:05.760Z,28.83
2023-02-15T09:02:36.271Z,25.37
2023-02-15T09:05:06.690Z,26.87
2023-02-15T09:07:36.650Z,30.90
2023-02-15T09:10:07.180Z,24.20
2023-02-15T09:12:39.818Z,28.93
2023-02-15T09:15:11.948Z,29.80
2023-02-15T09:17:41.893Z,29.07
2023-02-15T09:20:13.078Z,28.73
2023-02-15T09:22:43.152Z,27.37
2023-02-15T09:25:14.597Z,27.07
2023-02-15T09:27:47.216Z,26.63
2023-02-15T09:30:18.228Z,25.90
2023-02-15T09:32:48.402Z,25.77
2023-02-15T09:35:18.509Z,26.60
2023-02-15T09:37:48.506Z,25.30
2023-02-15T09:40:21.669Z,25.63
2023-02-15T09:43:35.134Z,26.93
2023-02-15T09:46:33.758Z,26.80
2023-02-15T09:49:15.133Z,24.60
2023-02-15T09:52:30.034Z,25.00
2023-02-15T09:55:23.339Z,22.20
2023-02-15T09:58:06.819Z,21.77
2023-02-15T10:00:53.847Z,22.97
2023-02-15T10:03:43.640Z,21.70
2023-02-15T10:06:35.456Z,22.10
2023-02-15T10:09:31.064Z,22.80
2023-02-15T10:12:24.357Z,20.60
2023-02-15T10:15:14.884Z,21.73
2023-02-15T10:18:04.173Z,21.20
2023-02-15T10:20:50.362Z,22.10
2023-02-15T10:23:50.806Z,19.67
2023-02-15T10:26:24.065Z,19.10
2023-02-15T10:28:57.597Z,20.23
2023-02-15T10:31:31.166Z,20.97
2023-02-15T10:34:20.101Z,20.10
2023-02-15T10:37:38.035Z,17.00
2023-02-15T10:40:23.948Z,18.43
2023-02-15T10:43:18.227Z,18.70
2023-02-15T10:46:06.824Z,17.60
2023-02-15T10:49:18.850Z,16.90
2023-02-15T10:52:12.199Z,15.13
2023-02-15T10:54:55.111Z,13.87
2023-02-15T10:57:37.852Z,14.30
2023-02-15T11:00:16.413Z,16.93
2023-02-15T11:03:21.538Z,18.40
2023-02-15T11:06:06.679Z,16.77
2023-02-15T11:08:43.151Z,17.50
2023-02-15T11:11:19.642Z,17.70
2023-02-15T11:13:57.123Z,18.00
2023-02-15T11:16:32.791Z,15.67
2023-02-15T11:19:10.418Z,16.07
2023-02-15T11:21:50.990Z,19.20
2023-02-15T11:24:24.080Z,17.00
2023-02-15T11:27:03.483Z,16.93
2023-02-15T11:29:40.560Z,17.93
2023-02-15T11:32:25.054Z,17.17
2023-02-15T11:35:02.151Z,16.60
2023-02-15T11:37:41.715Z,18.50
2023-02-15T11:40:25.740Z,16.83
2023-02-15T11:43:01.066Z,16.40
2023-02-15T11:45:33.952Z,15.73
2023-02-15T11:48:05.900Z,17.07
2023-02-15T11:50:36.761Z,15.03
2023-02-15T11:53:17.989Z,16.50
2023-02-15T11:55:51.859Z,15.77
2023-02-15T11:58:35.205Z,16.47
2023-02-15T12:01:15.121Z,12.50
2023-02-15T12:03:51.528Z,15.30
2023-02-15T12:06:29.310Z,14.67
2023-02-15T12:09:16.680Z,15.47
2023-02-15T12:11:46.743Z,14.80
2023-02-15T12:14:18.977Z,16.00
2023-02-15T12:16:52.901Z,15.47
2023-02-15T12:19:33.895Z,14.07
2023-02-15T12:22:09.672Z,16.07
2023-02-15T12:24:52.261Z,22.60
2023-02-15T12:27:27.571Z,22.67
2023-02-15T12:30:05.069Z,20.07
2023-02-15T12:32:38.604Z,21.90
2023-02-15T12:35:19.993Z,22.60
2023-02-15T12:37:58.978Z,21.67
2023-02-15T12:40:32.631Z,22.97
2023-02-15T12:43:09.500Z,21.60
2023-02-15T12:45:41.575Z,23.00
2023-02-15T12:48:21.048Z,19.93
2023-02-15T12:50:55.899Z,20.63
2023-02-15T12:53:35.514Z,21.20
2023-02-15T12:56:11.349Z,20.37
2023-02-15T12:58:43.549Z,20.80
2023-02-15T13:01:18.793Z,20.57
2023-02-15T13:04:06.872Z,19.63
2023-02-15T13:06:40.398Z,19.50
2023-02-15T13:09:20.718Z,22.67
2023-02-15T13:11:53.548Z,21.30
2023-02-15T13:14:30.060Z,20.40
2023-02-15T13:17:08.711Z,20.37
2023-02-15T13:19:45.827Z,20.10
2023-02-15T13:22:21.435Z,21.50
2023-02-15T13:24:56.307Z,18.80
2023-02-15T13:27:37.994Z,19.97
2023-02-15T13:30:26.104Z,20.30
2023-02-15T13:33:04.092Z,19.90
2023-02-15T13:35:46.788Z,19.60
2023-02-15T13:38:47.915Z,18.30
2023-02-15T13:41:27.641Z,21.70
2023-02-15T13:44:15.889Z,19.20
2023-02-15T13:47:10.057Z,19.30
2023-02-15T13:49:56.389Z,20.60
2023-02-15T13:52:30.854Z,22.03
2023-02-15T13:55:27.378Z,20.07
2023-02-15T13:58:31.949Z,22.23
2023-02-15T14:01:14.426Z,21.37
2023-02-15T14:04:16.423Z,23.87
2023-02-15T14:07:22.175Z,21.70
2023-02-15T14:10:06.392Z,23.20
2023-02-15T14:13:05.408Z,23.03
2023-02-15T14:15:48.149Z,20.87
2023-02-15T14:18:31.110Z,20.40
2023-02-15T14:21:13.312Z,21.27
2023-02-15T14:24:05.670Z,21.80
2023-02-15T14:26:45.623Z,23.53
2023-02-15T14:29:31.358Z,21.27
2023-02-15T14:32:12.202Z,20.30
2023-02-15T14:34:52.417Z,20.23
2023-02-15T14:37:40.883Z,21.83
2023-02-15T14:40:34.850Z,22.17
2023-02-15T14:43:15.191Z,22.87
2023-02-15T14:45:53.547Z,21.20
2023-02-15T14:48:33.365Z,22.70
2023-02-15T14:51:06.403Z,23.00
2023-02-15T14:53:43.212Z,23.87
2023-02-15T14:56:27.563Z,23.47
2023-02-15T14:59:18.548Z,22.70
2023-02-15T15:02:01.437Z,19.67
2023-02-15T15:04:44.992Z,24.50
2023-02-15T15:07:29.860Z,23.03
2023-02-15T15:10:17.083Z,23.23
2023-02-15T15:12:49.250Z,23.63
2023-02-15T15:15:47.864Z,23.80
2023-02-15T15:18:50.619Z,21.47
2023-02-15T15:21:58.298Z,24.40
2023-02-15T15:24:57.485Z,26.03
2023-02-15T15:27:47.650Z,24.23
2023-02-15T15:30:51.682Z,24.67
2023-02-15T15:34:11.466Z,23.47
2023-02-15T15:37:36.228Z,25.90
2023-02-15T15:40:53.094Z,21.43
2023-02-15T15:44:12.496Z,25.80
2023-02-15T15:47:26.738Z,25.70
2023-02-15T15:50:01.183Z,24.80
2023-02-15T15:52:39.602Z,24.90
2023-02-15T15:55:23.556Z,23.23
2023-02-15T15:57:57.242Z,26.30
2023-02-15T16:00:40.629Z,26.00
2023-02-15T16:03:19.308Z,24.30
2023-02-15T16:05:54.069Z,22.90
2023-02-15T16:08:32.539Z,24.90
2023-02-15T16:11:17.133Z,25.70
2023-02-15T16:13:48.989Z,25.77
2023-02-15T16:16:26.174Z,25.13
2023-02-15T16:18:56.819Z,23.70
2023-02-15T16:21:35.156Z,24.10
2023-02-15T16:24:41.107Z,20.07
2023-02-15T16:27:38.545Z,24.17
2023-02-15T16:30:28.680Z,22.83
2023-02-15T16:33:08.326Z,25.20
2023-02-15T16:35:41.028Z,22.13
2023-02-15T16:38:14.478Z,30.60
2023-02-15T16:40:58.789Z,23.70
2023-02-15T16:43:35.981Z,24.87
2023-02-15T16:46:10.767Z,22.97
2023-02-15T16:48:47.306Z,23.63
2023-02-15T16:51:28.569Z,23.90
2023-02-15T16:54:04.878Z,22.57
2023-02-15T16:56:37.426Z,18.47
2023-02-15T16:59:10.207Z,20.23
2023-02-15T17:01:40.238Z,22.10
2023-02-15T17:04:29.839Z,21.53
2023-02-15T17:07:07.170Z,23.13
2023-02-15T17:09:37.646Z,26.33
2023-02-15T17:12:10.539Z,22.37
2023-02-15T17:14:44.455Z,22.50
2023-02-15T17:17:19.170Z,22.90
2023-02-15T17:19:54.307Z,23.07
2023-02-15T17:22:30.473Z,23.83
2023-02-15T17:25:05.514Z,24.10
2023-02-15T17:27:38.085Z,25.10
2023-02-15T17:30:25.012Z,24.40
2023-02-15T17:33:01.535Z,25.33
2023-02-15T17:35:33.544Z,23.40
2023-02-15T17:38:20.402Z,23.30
2023-02-15T17:40:51.154Z,26.63
2023-02-15T17:43:21.154Z,23.90
2023-02-15T17:45:56.408Z,24.73
2023-02-15T17:48:34.353Z,24.57
2023-02-15T17:51:06.780Z,23.87
2023-02-15T17:53:37.423Z,24.17
2023-02-15T17:56:10.665Z,23.90
2023-02-15T17:58:42.319Z,23.10
2023-02-15T18:01:35.959Z,23.90
2023-02-15T18:04:18.759Z,21.87
2023-02-15T18:07:01.409Z,22.70
2023-02-15T18:09:44.076Z,25.47
2023-02-15T18:12:24.509Z,25.23
2023-02-15T18:14:55.833Z,25.60
2023-02-15T18:17:35.357Z,23.33
2023-02-15T18:20:11.339Z,25.50
2023-02-15T18:22:41.371Z,24.30
2023-02-15T18:25:16.851Z,24.03
2023-02-15T18:27:47.420Z,24.60
2023-02-15T18:30:21.276Z,24.27
2023-02-15T18:32:57.925Z,24.17
2023-02-15T18:35:33.604Z,24.13
2023-02-15T18:38:04.891Z,22.00
2023-02-15T18:40:35.124Z,23.80
2023-02-15T18:43:05.155Z,25.80
2023-02-15T18:45:37.333Z,25.10
2023-02-15T18:48:10.336Z,23.37
2023-02-15T18:50:41.558Z,27.77
2023-02-15T18:53:22.393Z,29.07
2023-02-15T18:55:52.502Z,29.73
2023-02-15T18:58:25.252Z,28.87
2023-02-15T19:00:55.669Z,26.70
2023-02-15T19:03:28.283Z,30.40
2023-02-15T19:05:58.333Z,27.60
2023-02-15T19:08:28.503Z,30.90
2023-02-15T19:10:58.904Z,29.70
2023-02-15T19:13:29.035Z,31.67
2023-02-15T19:16:00.079Z,28.13
2023-02-15T19:18:33.189Z,33.50
2023-02-15T19:21:03.277Z,33.63
2023-02-15T19:23:33.782Z,31.23
2023-02-15T19:26:06.063Z,32.23
2023-02-15T19:28:37.484Z,27.13
2023-02-15T19:31:08.605Z,29.40
2023-02-15T19:33:41.596Z,30.27
2023-02-15T19:36:21.676Z,30.30
2023-02-15T19:38:56.809Z,30.77
2023-02-15T19:41:33.571Z,30.27
2023-02-15T19:44:03.866Z,33.47
2023-02-15T19:46:34.214Z,31.43
2023-02-15T19:49:06.926Z,37.40
2023-02-15T19:51:36.925Z,32.33
2023-02-15T19:54:11.389Z,31.10
2023-02-15T19:56:41.483Z,33.67
2023-02-15T19:59:28.874Z,32.80
2023-02-15T20:01:59.717Z,35.07
2023-02-15T20:04:32.473Z,35.60
2023-02-15T20:07:05.153Z,34.37
2023-02-15T20:09:40.857Z,30.93
2023-02-15T20:12:23.464Z,29.97
2023-02-15T20:14:53.795Z,30.50
2023-02-15T20:17:23.891Z,31.97
2023-02-15T20:19:56.632Z,32.70
2023-02-15T20:22:30.013Z,35.07
2023-02-15T20:25:01.354Z,35.40
2023-02-15T20:27:31.379Z,31.37
2023-02-15T20:30:01.419Z,29.60
2023-02-15T20:32:31.759Z,30.30
2023-02-15T20:35:04.484Z,27.43
2023-02-15T20:37:34.616Z,25.20
2023-02-15T20:40:04.805Z,26.93
2023-02-15T20:42:37.675Z,27.53
2023-02-15T20:45:19.952Z,26.40
2023-02-15T20:47:51.225Z,25.13
2023-02-15T20:50:27.696Z,25.37
2023-02-15T20:53:02.667Z,25.17
2023-02-15T20:55:34.826Z,24.30
2023-02-15T20:58:04.879Z,25.00
2023-02-15T21:00:35.275Z,26.70
2023-02-15T21:03:05.376Z,25.33
2023-02-15T21:05:38.026Z,24.77
2023-02-15T21:08:15.646Z,24.53
2023-02-15T21:10:48.022Z,23.30
2023-02-15T21:13:25.559Z,23.10
2023-02-15T21:15:58.078Z,25.23
2023-02-15T21:18:31.176Z,26.87
2023-02-15T21:21:07.382Z,26.40
2023-02-15T21:23:41.376Z,26.67
2023-02-15T21:26:19.890Z,27.50
2023-02-15T21:28:51.083Z,25.93
2023-02-15T21:31:24.945Z,24.10
2023-02-15T21:33:55.499Z,26.30
2023-02-15T21:36:28.327Z,25.10
2023-02-15T21:38:58.497Z,24.00
2023-02-15T21:41:41.878Z,24.37
2023-02-15T21:44:32.243Z,25.23
2023-02-15T21:47:14.712Z,22.43
2023-02-15T21:49:44.784Z,25.83
2023-02-15T21:52:23.192Z,24.70
2023-02-15T21:54:53.387Z,25.13
2023-02-15T21:57:23.399Z,28.87
2023-02-15T21:59:53.464Z,30.30
2023-02-15T22:02:32.953Z,29.60
2023-02-15T22:05:02.982Z,28.20
2023-02-15T22:07:35.601Z,25.33
2023-02-15T22:10:05.757Z,24.87
2023-02-15T22:12:36.074Z,24.80
2023-02-15T22:15:07.497Z,23.97
2023-02-15T22:17:37.943Z,23.30
2023-02-15T22:20:19.344Z,24.17
2023-02-15T22:22:54.248Z,22.93
2023-02-15T22:25:27.826Z,22.33
2023-02-15T22:27:58.429Z,23.20
2023-02-15T22:30:32.720Z,21.50
2023-02-15T22:33:03.892Z,23.00
2023-02-15T22:35:36.908Z,25.00
2023-02-15T22:38:09.486Z,23.20
2023-02-15T22:40:39.511Z,24.10
2023-02-15T22:43:21.186Z,23.70
2023-02-15T22:45:51.561Z,22.47
2023-02-15T22:48:25.234Z,24.20
2023-02-15T22:50:55.511Z,22.47
2023-02-15T22:53:28.840Z,25.17
2023-02-15T22:55:59.443Z,23.20
2023-02-15T22:58:31.707Z,23.43
2023-02-15T23:01:03.842Z,22.70
2023-02-15T23:03:34.669Z,22.43
2023-02-15T23:06:04.704Z,24.10
2023-02-15T23:08:37.279Z,24.20
2023-02-15T23:11:08.855Z,20.87
2023-02-15T23:13:39.013Z,23.20
2023-02-15T23:16:16.942Z,23.67
2023-02-15T23:18:50.183Z,23.70
2023-02-15T23:21:24.975Z,25.27
2023-02-15T23:24:01.641Z,23.40
2023-02-15T23:26:34.131Z,23.67
2023-02-15T23:29:05.484Z,27.17
2023-02-15T23:31:41.688Z,27.40
2023-02-15T23:34:19.981Z,24.57
2023-02-15T23:36:50.115Z,26.77
2023-02-15T23:39:38.725Z,23.87
2023-02-15T23:42:14.206Z,24.50
2023-02-15T23:44:46.504Z,25.33
2023-02-15T23:47:44.239Z,23.90
2023-02-15T23:50:21.804Z,23.70
2023-02-15T23:52:53.685Z,24.17
2023-02-15T23:55:31.124Z,26.50
2023-02-15T23:58:01.205Z,26.23
